createdAt,value
2019-01-23T00:00:46.807Z,0
2019-01-23T00:01:46.711Z,0
2019-01-23T00:02:46.759Z,0
2019-01-23T00:03:47.275Z,0
2019-01-23T00:04:46.830Z,0
2019-01-23T00:05:46.733Z,0
2019-01-23T00:06:46.791Z,0
2019-01-23T00:07:46.818Z,0
2019-01-23T00:08:46.752Z,0
2019-01-23T00:09:47.098Z,0
2019-01-23T00:10:46.775Z,0
2019-01-23T00:11:46.907Z,0
2019-01-23T00:12:46.780Z,0
2019-01-23T00:13:48.994Z,0
2019-01-23T00:14:46.957Z,0
2019-01-23T00:15:48.139Z,0
2019-01-23T00:16:46.884Z,0
2019-01-23T00:17:46.815Z,0
2019-01-23T00:18:48.256Z,0
2019-01-23T00:19:46.899Z,0
2019-01-23T00:20:46.904Z,0
2019-01-23T00:21:47.386Z,0
2019-01-23T00:22:46.795Z,0
2019-01-23T00:23:46.852Z,0
2019-01-23T00:24:46.829Z,0
2019-01-23T00:25:47.378Z,0
2019-01-23T00:26:46.847Z,0
2019-01-23T00:27:47.158Z,0
2019-01-23T00:28:50.820Z,0
2019-01-23T00:29:46.863Z,0
2019-01-23T00:30:46.871Z,0
2019-01-23T00:31:46.907Z,0
2019-01-23T00:32:46.759Z,0
2019-01-23T00:33:47.157Z,0
2019-01-23T00:34:46.855Z,0
2019-01-23T00:35:46.830Z,0
2019-01-23T00:36:46.940Z,0
2019-01-23T00:37:46.874Z,0
2019-01-23T00:38:46.888Z,0
2019-01-23T00:39:47.195Z,0
2019-01-23T00:40:46.793Z,0
2019-01-23T00:41:46.943Z,0
2019-01-23T00:42:46.845Z,0
2019-01-23T00:43:46.826Z,0
2019-01-23T00:44:46.966Z,0
2019-01-23T00:45:47.242Z,0
2019-01-23T00:46:47.079Z,0
2019-01-23T00:47:46.824Z,0
2019-01-23T00:48:46.885Z,0
2019-01-23T00:49:48.077Z,0
2019-01-23T00:50:46.913Z,0
2019-01-23T00:51:47.174Z,0
2019-01-23T00:52:47.232Z,0
2019-01-23T00:53:46.980Z,0
2019-01-23T00:54:46.822Z,0
2019-01-23T00:55:46.885Z,0
2019-01-23T00:56:46.869Z,0
2019-01-23T00:57:47.509Z,0
2019-01-23T00:58:52.023Z,0
2019-01-23T00:59:46.886Z,0
2019-01-23T01:00:47.072Z,0
2019-01-23T01:01:46.901Z,0
2019-01-23T01:02:46.881Z,0
2019-01-23T01:03:47.501Z,0
2019-01-23T01:04:46.851Z,0
2019-01-23T01:05:46.867Z,0
2019-01-23T01:06:46.835Z,0
2019-01-23T01:07:46.913Z,0
2019-01-23T01:08:46.995Z,0
2019-01-23T01:09:55.184Z,0
2019-01-23T01:10:46.903Z,0
2019-01-23T01:11:46.911Z,0
2019-01-23T01:12:46.943Z,0
2019-01-23T01:13:47.053Z,0
2019-01-23T01:14:46.960Z,0
2019-01-23T01:15:57.305Z,0
2019-01-23T01:16:46.896Z,0
2019-01-23T01:17:47.693Z,0
2019-01-23T01:18:49.096Z,0
2019-01-23T01:19:46.966Z,0
2019-01-23T01:20:46.881Z,0
2019-01-23T01:22:46.884Z,0
2019-01-23T01:23:46.976Z,0
2019-01-23T01:24:46.949Z,0
2019-01-23T01:25:46.927Z,0
2019-01-23T01:26:46.910Z,0
2019-01-23T01:27:49.394Z,0
2019-01-23T01:28:47.809Z,0
2019-01-23T01:29:47.033Z,0
2019-01-23T01:30:47.019Z,0
2019-01-23T01:31:46.924Z,0
2019-01-23T01:32:47.864Z,0
2019-01-23T01:33:47.554Z,0
2019-01-23T01:34:46.947Z,0
2019-01-23T01:35:47.010Z,0
2019-01-23T01:36:46.927Z,0
2019-01-23T01:37:47.044Z,0
2019-01-23T01:38:46.973Z,0
2019-01-23T01:39:47.178Z,0
2019-01-23T01:40:46.975Z,0
2019-01-23T01:41:46.860Z,0
2019-01-23T01:42:46.922Z,0
2019-01-23T01:43:46.949Z,0
2019-01-23T01:44:46.984Z,0
2019-01-23T01:45:47.310Z,0
2019-01-23T01:46:46.932Z,0
2019-01-23T01:47:46.969Z,0
2019-01-23T01:48:47.144Z,0
2019-01-23T01:49:46.907Z,0
2019-01-23T01:50:46.917Z,0
2019-01-23T01:51:50.580Z,0
2019-01-23T01:52:46.917Z,0
2019-01-23T01:53:47.074Z,0
2019-01-23T01:54:46.917Z,0
2019-01-23T01:55:47.665Z,0
2019-01-23T01:56:46.989Z,0
2019-01-23T01:57:47.276Z,0
2019-01-23T01:58:49.560Z,0
2019-01-23T01:59:46.903Z,0
2019-01-23T02:00:47.711Z,0
2019-01-23T02:01:47.019Z,0
2019-01-23T02:07:04.942Z,0
2019-01-23T02:07:17.248Z,0
2019-01-23T02:08:17.327Z,0
2019-01-23T02:09:17.242Z,0
2019-01-23T02:10:17.309Z,0
2019-01-23T02:11:17.215Z,0
2019-01-23T02:12:21.879Z,0
2019-01-23T02:17:37.613Z,0
2019-01-23T02:17:50.136Z,0
2019-01-23T02:18:52.428Z,0
2019-01-23T02:19:49.503Z,0
2019-01-23T02:20:49.578Z,0
2019-01-23T02:21:49.522Z,0
2019-01-23T02:22:49.998Z,0
2019-01-23T02:23:49.610Z,0
2019-01-23T02:24:50.127Z,0
2019-01-23T02:25:49.575Z,0
2019-01-23T02:26:49.611Z,0
2019-01-23T02:27:49.586Z,0
2019-01-23T02:28:49.934Z,0
2019-01-23T02:29:49.588Z,0
2019-01-23T02:30:49.757Z,0
2019-01-23T02:31:49.570Z,0
2019-01-23T02:32:49.632Z,0
2019-01-23T02:33:49.646Z,0
2019-01-23T02:34:51.102Z,0
2019-01-23T02:35:49.672Z,0
2019-01-23T02:36:49.737Z,0
2019-01-23T02:37:49.602Z,0
2019-01-23T02:38:49.826Z,0
2019-01-23T02:39:49.602Z,0
2019-01-23T02:40:54.228Z,0
2019-01-23T02:41:50.962Z,0
2019-01-23T02:42:49.621Z,0
2019-01-23T02:43:51.314Z,0
2019-01-23T02:44:49.704Z,0
2019-01-23T02:45:49.644Z,0
2019-01-23T02:46:49.972Z,0
2019-01-23T02:47:49.627Z,0
2019-01-23T02:48:51.126Z,0
2019-01-23T02:49:49.612Z,0
2019-01-23T02:50:49.740Z,0
2019-01-23T02:51:49.747Z,0
2019-01-23T02:52:50.026Z,0
2019-01-23T02:53:49.748Z,0
2019-01-23T02:54:49.842Z,0
2019-01-23T02:55:49.655Z,0
2019-01-23T02:56:49.870Z,0
2019-01-23T02:57:49.646Z,0
2019-01-23T02:58:50.606Z,0
2019-01-23T02:59:49.726Z,0
2019-01-23T03:00:49.718Z,0
2019-01-23T03:01:49.656Z,0
2019-01-23T03:02:49.659Z,0
2019-01-23T03:03:49.666Z,0
2019-01-23T03:04:49.975Z,0
2019-01-23T03:05:49.641Z,0
2019-01-23T03:06:49.711Z,0
2019-01-23T03:07:49.710Z,0
2019-01-23T03:08:49.835Z,0
2019-01-23T03:09:49.677Z,0
2019-01-23T03:10:51.061Z,0
2019-01-23T03:11:49.675Z,0
2019-01-23T03:12:49.705Z,0
2019-01-23T03:13:51.222Z,0
2019-01-23T03:14:49.695Z,0
2019-01-23T03:15:49.656Z,0
2019-01-23T03:16:50.171Z,0
2019-01-23T03:17:49.733Z,0
2019-01-23T03:18:50.792Z,0
2019-01-23T03:19:49.674Z,0
2019-01-23T03:20:49.734Z,0
2019-01-23T03:21:49.775Z,0
2019-01-23T03:22:50.012Z,0
2019-01-23T03:23:49.829Z,0
2019-01-23T03:24:49.742Z,0
2019-01-23T03:25:49.633Z,0
2019-01-23T03:26:49.671Z,0
2019-01-23T03:27:49.696Z,0
2019-01-23T03:28:52.406Z,0
2019-01-23T03:29:49.759Z,0
2019-01-23T03:30:49.639Z,0
2019-01-23T03:31:49.769Z,0
2019-01-23T03:32:49.707Z,0
2019-01-23T03:33:49.736Z,0
2019-01-23T03:34:55.724Z,0
2019-01-23T03:35:49.717Z,0
2019-01-23T03:36:49.671Z,0
2019-01-23T03:37:49.695Z,0
2019-01-23T03:38:49.699Z,0
2019-01-23T03:39:49.685Z,0
2019-01-23T03:40:50.070Z,0
2019-01-23T03:41:49.680Z,0
2019-01-23T03:42:49.794Z,0
2019-01-23T03:43:49.987Z,0
2019-01-23T03:44:49.692Z,0
2019-01-23T03:45:49.745Z,0
2019-01-23T03:46:51.099Z,0
2019-01-23T03:47:49.750Z,0
2019-01-23T03:48:49.816Z,0
2019-01-23T03:49:49.746Z,0
2019-01-23T03:50:49.795Z,0
2019-01-23T03:51:49.806Z,0
2019-01-23T03:52:49.999Z,0
2019-01-23T03:53:49.726Z,0
2019-01-23T03:54:49.721Z,0
2019-01-23T03:55:49.736Z,0
2019-01-23T03:56:49.805Z,0
2019-01-23T03:57:49.701Z,0
2019-01-23T03:58:50.048Z,0
2019-01-23T03:59:49.720Z,0
2019-01-23T04:00:49.875Z,0
2019-01-23T04:01:49.901Z,0
2019-01-23T04:02:49.688Z,0
2019-01-23T04:03:49.786Z,0
2019-01-23T04:04:52.140Z,0
2019-01-23T04:05:49.758Z,0
2019-01-23T04:06:49.867Z,0
2019-01-23T04:07:49.851Z,0
2019-01-23T04:08:49.780Z,0
2019-01-23T04:09:49.852Z,0
2019-01-23T04:10:53.205Z,0
2019-01-23T04:11:50.418Z,0
2019-01-23T04:12:49.739Z,0
2019-01-23T04:13:50.247Z,0
2019-01-23T04:14:49.787Z,0
2019-01-23T04:15:49.756Z,0
2019-01-23T04:16:51.197Z,0
2019-01-23T04:17:55.194Z,0
2019-01-23T04:23:22.169Z,0
2019-01-23T04:23:34.235Z,0
2019-01-23T04:24:34.330Z,0
2019-01-23T04:27:41.551Z,0
2019-01-23T04:34:22.434Z,0
2019-01-23T04:34:34.557Z,0
2019-01-23T04:35:34.391Z,0
2019-01-23T04:36:34.427Z,0
2019-01-23T04:37:34.544Z,0
2019-01-23T04:38:34.645Z,0
2019-01-23T04:39:38.342Z,0
2019-01-23T04:40:34.357Z,0
2019-01-23T04:41:34.461Z,0
2019-01-23T04:42:34.548Z,0
2019-01-23T04:43:34.445Z,0
2019-01-23T04:44:34.388Z,0
2019-01-23T04:45:34.800Z,0
2019-01-23T04:46:34.429Z,0
2019-01-23T04:47:34.504Z,0
2019-01-23T04:48:34.547Z,0
2019-01-23T04:49:34.903Z,0
2019-01-23T04:50:34.415Z,0
2019-01-23T04:51:34.856Z,0
2019-01-23T04:52:34.432Z,0
2019-01-23T04:53:34.512Z,0
2019-01-23T04:54:34.491Z,0
2019-01-23T04:55:34.449Z,0
2019-01-23T04:56:34.498Z,0
2019-01-23T04:57:34.876Z,0
2019-01-23T04:58:34.444Z,0
2019-01-23T04:59:34.514Z,0
2019-01-23T05:00:34.423Z,0
2019-01-23T05:01:34.501Z,0
2019-01-23T05:02:34.540Z,0
2019-01-23T05:03:34.882Z,0
2019-01-23T05:04:34.497Z,0
2019-01-23T05:05:34.517Z,0
2019-01-23T05:06:34.492Z,0
2019-01-23T05:07:34.528Z,0
2019-01-23T05:08:34.506Z,0
2019-01-23T05:09:34.993Z,0
2019-01-23T05:10:34.523Z,0
2019-01-23T05:11:34.541Z,0
2019-01-23T05:12:34.533Z,0
2019-01-23T05:13:34.526Z,0
2019-01-23T05:14:34.513Z,0
2019-01-23T05:15:34.929Z,0
2019-01-23T05:16:34.529Z,0
2019-01-23T05:17:34.703Z,0
2019-01-23T05:18:34.574Z,0
2019-01-23T05:19:34.960Z,0
2019-01-23T05:20:34.667Z,0
2019-01-23T05:21:38.723Z,0
2019-01-23T05:22:34.625Z,0
2019-01-23T05:23:34.540Z,0
2019-01-23T05:24:34.619Z,0
2019-01-23T05:25:35.031Z,0
2019-01-23T05:26:34.766Z,0
2019-01-23T05:27:34.975Z,0
2019-01-23T05:28:34.535Z,0
2019-01-23T05:29:34.745Z,0
2019-01-23T05:30:34.640Z,0
2019-01-23T05:31:34.590Z,0
2019-01-23T05:32:34.694Z,0
2019-01-23T05:33:34.931Z,0
2019-01-23T05:34:34.614Z,0
2019-01-23T05:35:34.618Z,0
2019-01-23T05:36:34.565Z,0
2019-01-23T05:37:34.597Z,0
2019-01-23T05:38:35.221Z,0
2019-01-23T05:39:35.989Z,0
2019-01-23T05:40:34.549Z,0
2019-01-23T05:41:35.007Z,0
2019-01-23T05:42:34.701Z,0
2019-01-23T05:43:34.608Z,0
2019-01-23T05:44:34.653Z,0
2019-01-23T05:45:37.081Z,0
2019-01-23T05:48:41.875Z,0
2019-01-23T05:48:53.992Z,0
2019-01-23T05:49:53.963Z,0
2019-01-23T05:50:54.257Z,0
2019-01-23T05:51:53.911Z,0
2019-01-23T05:52:54.004Z,0
2019-01-23T05:53:54.131Z,0
2019-01-23T05:54:54.135Z,0
2019-01-23T05:55:53.934Z,0
2019-01-23T05:56:54.307Z,0
2019-01-23T05:57:53.935Z,0
2019-01-23T05:58:54.650Z,0
2019-01-23T05:59:53.939Z,0
2019-01-23T06:00:53.904Z,0
2019-01-23T06:01:53.948Z,0
2019-01-23T06:02:54.355Z,0
2019-01-23T06:03:53.958Z,0
2019-01-23T06:04:54.042Z,0
2019-01-23T06:05:54.050Z,0
2019-01-23T06:06:54.550Z,0
2019-01-23T06:07:53.914Z,0
2019-01-23T06:08:54.256Z,0
2019-01-23T06:09:53.883Z,0
2019-01-23T06:10:54.174Z,0
2019-01-23T06:11:55.148Z,0
2019-01-23T06:12:53.974Z,0
2019-01-23T06:13:54.746Z,0
2019-01-23T06:14:54.324Z,0
2019-01-23T06:15:53.968Z,0
2019-01-23T06:16:53.935Z,0
2019-01-23T06:17:54.020Z,0
2019-01-23T06:18:54.365Z,0
2019-01-23T06:19:54.054Z,0
2019-01-23T06:20:55.609Z,0
2019-01-23T06:21:54.075Z,0
2019-01-23T06:22:54.040Z,0
2019-01-23T06:23:53.981Z,0
2019-01-23T06:24:53.957Z,0
2019-01-23T06:25:53.895Z,0
2019-01-23T06:26:54.319Z,0
2019-01-23T06:27:53.949Z,0
2019-01-23T06:28:55.430Z,0
2019-01-23T06:29:53.984Z,0
2019-01-23T06:30:53.959Z,0
2019-01-23T06:31:54.029Z,0
2019-01-23T06:32:54.325Z,0
2019-01-23T06:33:54.102Z,0
2019-01-23T06:34:54.070Z,0
2019-01-23T06:35:53.993Z,0
2019-01-23T06:36:53.948Z,0
2019-01-23T06:37:53.983Z,0
2019-01-23T06:38:55.529Z,0
2019-01-23T06:39:54.123Z,0
2019-01-23T06:40:53.977Z,0
2019-01-23T06:41:53.990Z,0
2019-01-23T06:42:53.991Z,0
2019-01-23T06:43:54.045Z,0
2019-01-23T06:44:55.341Z,0
2019-01-23T06:45:54.078Z,0
2019-01-23T06:46:54.028Z,0
2019-01-23T06:47:54.047Z,0
2019-01-23T06:48:54.036Z,0
2019-01-23T06:49:54.119Z,0
2019-01-23T06:50:54.373Z,0
2019-01-23T06:51:54.037Z,0
2019-01-23T06:52:53.975Z,0
2019-01-23T06:53:54.029Z,0
2019-01-23T06:54:53.986Z,0
2019-01-23T06:55:54.027Z,0
2019-01-23T06:56:59.824Z,4
2019-01-23T06:57:54.053Z,4
2019-01-23T06:58:53.962Z,4
2019-01-23T06:59:54.014Z,0
2019-01-23T07:00:54.032Z,0
2019-01-23T07:01:54.039Z,4
2019-01-23T07:02:54.034Z,4
2019-01-23T07:03:54.019Z,0
2019-01-23T07:04:54.042Z,4
2019-01-23T07:05:54.558Z,0
2019-01-23T07:06:54.157Z,4
2019-01-23T07:07:53.987Z,4
2019-01-23T07:08:54.364Z,4
2019-01-23T07:09:55.037Z,4
2019-01-23T07:10:54.076Z,4
2019-01-23T07:11:54.106Z,4
2019-01-23T07:12:54.166Z,4
2019-01-23T07:13:54.175Z,8
2019-01-23T07:14:54.417Z,8
2019-01-23T07:15:54.018Z,4
2019-01-23T07:16:54.122Z,8
2019-01-23T07:17:54.717Z,8
2019-01-23T07:18:58.117Z,4
2019-01-23T07:19:54.871Z,8
2019-01-23T07:20:54.372Z,8
2019-01-23T07:21:54.208Z,8
2019-01-23T07:22:54.017Z,8
2019-01-23T07:23:54.046Z,12
2019-01-23T07:24:54.078Z,8
2019-01-23T07:25:54.383Z,8
2019-01-23T07:26:54.126Z,12
2019-01-23T07:27:54.070Z,8
2019-01-23T07:28:57.753Z,8
2019-01-23T07:29:54.021Z,12
2019-01-23T07:30:54.049Z,12
2019-01-23T07:31:54.401Z,12
2019-01-23T07:32:54.105Z,12
2019-01-23T07:33:54.204Z,12
2019-01-23T07:34:54.059Z,12
2019-01-23T07:36:11.452Z,16
2019-01-23T07:37:17.511Z,16
2019-01-23T07:38:07.785Z,20
2019-01-23T07:38:54.165Z,16
2019-01-23T07:40:12.784Z,16
2019-01-23T07:40:54.074Z,20
2019-01-23T07:41:54.162Z,20
2019-01-23T07:42:54.162Z,20
2019-01-23T07:43:54.474Z,24
2019-01-23T07:44:54.072Z,28
2019-01-23T07:45:54.152Z,28
2019-01-23T07:46:54.087Z,24
2019-01-23T07:47:54.196Z,28
2019-01-23T07:48:54.169Z,28
2019-01-23T07:49:55.469Z,28
2019-01-23T07:50:54.067Z,28
2019-01-23T07:51:54.329Z,28
2019-01-23T07:52:54.144Z,24
2019-01-23T07:53:54.161Z,24
2019-01-23T07:54:54.161Z,24
2019-01-23T07:55:54.523Z,28
2019-01-23T07:56:54.098Z,28
2019-01-23T07:57:54.157Z,28
2019-01-23T07:58:54.479Z,28
2019-01-23T07:59:54.107Z,28
2019-01-23T08:00:54.115Z,32
2019-01-23T08:01:54.466Z,32
2019-01-23T08:02:54.096Z,32
2019-01-23T08:03:54.107Z,32
2019-01-23T08:04:54.068Z,32
2019-01-23T08:05:54.074Z,36
2019-01-23T08:06:54.119Z,36
2019-01-23T08:07:55.489Z,32
2019-01-23T08:08:54.798Z,32
2019-01-23T08:09:54.249Z,32
2019-01-23T08:10:54.245Z,32
2019-01-23T08:11:54.228Z,28
2019-01-23T08:12:55.898Z,28
2019-01-23T08:13:54.667Z,28
2019-01-23T08:14:54.095Z,28
2019-01-23T08:15:54.127Z,28
2019-01-23T08:16:54.301Z,28
2019-01-23T08:17:54.297Z,28
2019-01-23T08:18:54.546Z,28
2019-01-23T08:19:54.506Z,24
2019-01-23T08:20:56.432Z,24
2019-01-23T08:21:54.055Z,20
2019-01-23T08:22:54.163Z,24
2019-01-23T08:23:54.809Z,24
2019-01-23T08:24:54.163Z,24
2019-01-23T08:26:00.308Z,24
2019-01-23T08:26:54.216Z,24
2019-01-23T08:27:54.149Z,24
2019-01-23T08:28:54.156Z,24
2019-01-23T08:29:54.237Z,24
2019-01-23T08:30:54.175Z,24
2019-01-23T08:31:54.517Z,24
2019-01-23T08:32:54.115Z,28
2019-01-23T08:33:54.095Z,28
2019-01-23T08:34:54.611Z,28
2019-01-23T08:35:54.104Z,28
2019-01-23T08:36:54.214Z,32
2019-01-23T08:37:54.467Z,32
2019-01-23T08:38:54.614Z,28
2019-01-23T08:39:54.146Z,32
2019-01-23T08:40:54.102Z,32
2019-01-23T08:42:24.283Z,32
2019-01-23T08:42:54.221Z,32
2019-01-23T08:43:55.922Z,32
2019-01-23T08:44:54.833Z,32
2019-01-23T08:46:27.597Z,32
2019-01-23T08:46:54.106Z,32
2019-01-23T08:47:54.285Z,36
2019-01-23T08:48:54.830Z,40
2019-01-23T08:49:56.555Z,36
2019-01-23T08:50:54.238Z,40
2019-01-23T08:51:54.174Z,44
2019-01-23T08:52:54.210Z,48
2019-01-23T08:53:54.597Z,48
2019-01-23T08:54:57.558Z,52
2019-01-23T08:55:59.968Z,56
2019-01-23T08:56:55.538Z,56
2019-01-23T08:57:55.894Z,56
2019-01-23T08:59:43.068Z,60
2019-01-23T09:01:01.816Z,64
2019-01-23T09:01:18.670Z,64
2019-01-23T09:02:13.785Z,68
2019-01-23T09:03:13.873Z,64
2019-01-23T09:04:13.812Z,68
2019-01-23T09:05:16.001Z,68
2019-01-23T09:06:14.786Z,72
2019-01-23T09:07:23.058Z,72
2019-01-23T09:08:14.186Z,72
2019-01-23T09:09:13.889Z,68
2019-01-23T09:10:13.837Z,68
2019-01-23T09:11:13.857Z,68
2019-01-23T09:12:15.177Z,72
2019-01-23T09:13:15.377Z,68
2019-01-23T09:14:13.835Z,68
2019-01-23T09:15:13.923Z,64
2019-01-23T09:16:13.928Z,64
2019-01-23T09:17:13.973Z,64
2019-01-23T09:18:15.549Z,68
2019-01-23T09:19:16.225Z,76
2019-01-23T09:20:13.953Z,76
2019-01-23T09:21:13.861Z,80
2019-01-23T09:22:13.857Z,88
2019-01-23T09:23:13.832Z,88
2019-01-23T09:24:13.944Z,92
2019-01-23T09:25:15.373Z,92
2019-01-23T09:26:14.005Z,92
2019-01-23T09:27:13.878Z,92
2019-01-23T09:29:18.512Z,96
2019-01-23T09:29:30.471Z,96
2019-01-23T09:30:31.041Z,100
2019-01-23T09:31:30.477Z,104
2019-01-23T09:32:30.481Z,108
2019-01-23T09:33:30.797Z,112
2019-01-23T09:34:30.494Z,116
2019-01-23T09:35:30.552Z,120
2019-01-23T09:36:30.836Z,116
2019-01-23T09:37:30.503Z,120
2019-01-23T09:38:30.584Z,116
2019-01-23T09:39:30.632Z,120
2019-01-23T09:40:31.329Z,124
2019-01-23T09:41:30.990Z,128
2019-01-23T09:43:31.635Z,136
2019-01-23T09:44:31.150Z,140
2019-01-23T09:45:30.840Z,148
2019-01-23T09:46:30.640Z,156
2019-01-23T09:47:30.648Z,164
2019-01-23T09:48:31.923Z,164
2019-01-23T09:49:30.730Z,152
2019-01-23T09:50:30.771Z,148
2019-01-23T09:51:30.775Z,148
2019-01-23T09:52:31.460Z,144
2019-01-23T09:53:31.016Z,136
2019-01-23T09:54:32.023Z,128
2019-01-23T09:55:30.693Z,120
2019-01-23T09:56:30.777Z,120
2019-01-23T09:57:30.683Z,120
2019-01-23T09:58:30.620Z,120
2019-01-23T09:59:30.723Z,124
2019-01-23T10:00:31.679Z,124
2019-01-23T10:01:30.705Z,124
2019-01-23T10:02:30.717Z,120
2019-01-23T10:03:31.675Z,116
2019-01-23T10:04:32.260Z,108
2019-01-23T10:05:30.738Z,108
2019-01-23T10:06:34.602Z,112
2019-01-23T10:07:30.823Z,108
2019-01-23T10:08:30.695Z,108
2019-01-23T10:09:38.261Z,112
2019-01-23T10:10:30.836Z,108
2019-01-23T10:11:31.429Z,108
2019-01-23T10:12:33.766Z,104
2019-01-23T10:13:30.875Z,104
2019-01-23T10:14:30.657Z,108
2019-01-23T10:15:30.903Z,108
2019-01-23T10:16:30.604Z,116
2019-01-23T10:17:30.628Z,120
2019-01-23T10:18:33.088Z,116
2019-01-23T10:19:30.597Z,108
2019-01-23T10:20:30.660Z,100
2019-01-23T10:21:30.574Z,96
2019-01-23T10:22:30.616Z,88
2019-01-23T10:23:30.789Z,88
2019-01-23T10:24:35.805Z,88
2019-01-23T10:25:30.872Z,88
2019-01-23T10:26:31.789Z,88
2019-01-23T10:27:31.707Z,92
2019-01-23T10:28:30.818Z,96
2019-01-23T10:29:30.784Z,100
2019-01-23T10:30:32.207Z,104
2019-01-23T10:31:30.748Z,108
2019-01-23T10:32:30.642Z,108
2019-01-23T10:33:30.795Z,112
2019-01-23T10:34:32.423Z,112
2019-01-23T10:35:30.725Z,116
2019-01-23T10:36:32.275Z,112
2019-01-23T10:37:30.958Z,112
2019-01-23T10:38:30.754Z,116
2019-01-23T10:39:30.804Z,116
2019-01-23T10:40:30.906Z,116
2019-01-23T10:41:30.741Z,112
2019-01-23T10:42:31.151Z,108
2019-01-23T10:43:30.746Z,108
2019-01-23T10:44:30.765Z,104
2019-01-23T10:45:30.687Z,104
2019-01-23T10:46:30.731Z,104
2019-01-23T10:47:30.804Z,104
2019-01-23T10:48:40.457Z,100
2019-01-23T10:49:30.754Z,104
2019-01-23T10:50:30.926Z,108
2019-01-23T10:51:30.705Z,112
2019-01-23T10:52:31.094Z,116
2019-01-23T10:53:30.863Z,112
2019-01-23T10:54:38.634Z,108
2019-01-23T10:55:30.654Z,104
2019-01-23T10:56:30.767Z,108
2019-01-23T10:57:30.768Z,108
2019-01-23T10:58:30.646Z,104
2019-01-23T10:59:30.653Z,108
2019-01-23T11:00:32.199Z,108
2019-01-23T11:01:30.794Z,104
2019-01-23T11:02:30.971Z,100
2019-01-23T11:03:30.745Z,100
2019-01-23T11:04:34.007Z,100
2019-01-23T11:05:32.099Z,100
2019-01-23T11:10:48.981Z,104
2019-01-23T11:11:01.403Z,100
2019-01-23T11:12:01.671Z,100
2019-01-23T11:13:01.380Z,100
2019-01-23T11:14:01.261Z,100
2019-01-23T11:15:01.383Z,96
2019-01-23T11:16:01.939Z,96
2019-01-23T11:17:01.128Z,100
2019-01-23T11:18:01.526Z,100
2019-01-23T11:19:02.835Z,100
2019-01-23T11:20:01.161Z,104
2019-01-23T11:21:01.228Z,108
2019-01-23T11:22:01.469Z,112
2019-01-23T11:23:01.659Z,108
2019-01-23T11:24:01.494Z,112
2019-01-23T11:25:01.501Z,116
2019-01-23T11:26:02.188Z,116
2019-01-23T11:27:01.942Z,116
2019-01-23T11:28:02.072Z,116
2019-01-23T11:29:01.725Z,116
2019-01-23T11:30:01.397Z,116
2019-01-23T11:31:01.245Z,112
2019-01-23T11:32:01.187Z,108
2019-01-23T11:33:01.212Z,108
2019-01-23T11:34:01.755Z,112
2019-01-23T11:35:01.189Z,108
2019-01-23T11:36:01.223Z,112
2019-01-23T11:37:01.302Z,116
2019-01-23T11:38:01.260Z,116
2019-01-23T11:39:01.456Z,116
2019-01-23T11:40:02.714Z,112
2019-01-23T11:41:01.291Z,112
2019-01-23T11:42:01.239Z,112
2019-01-23T11:43:01.422Z,112
2019-01-23T11:44:01.386Z,112
2019-01-23T11:45:01.323Z,116
2019-01-23T11:46:01.877Z,120
2019-01-23T11:47:01.301Z,128
2019-01-23T11:48:01.274Z,132
2019-01-23T11:49:01.319Z,140
2019-01-23T11:50:01.322Z,148
2019-01-23T11:51:01.357Z,148
2019-01-23T11:52:04.067Z,144
2019-01-23T11:53:01.295Z,144
2019-01-23T11:54:01.517Z,140
2019-01-23T11:55:01.529Z,140
2019-01-23T11:56:01.223Z,136
2019-01-23T11:57:01.401Z,132
2019-01-23T11:58:03.015Z,128
2019-01-23T11:59:01.425Z,124
2019-01-23T12:00:01.353Z,128
2019-01-23T12:01:01.436Z,128
2019-01-23T12:02:01.841Z,124
2019-01-23T12:03:01.352Z,124
2019-01-23T12:04:03.263Z,120
2019-01-23T12:05:01.579Z,120
2019-01-23T12:06:02.054Z,116
2019-01-23T12:07:02.323Z,112
2019-01-23T12:08:01.569Z,108
2019-01-23T12:09:01.802Z,104
2019-01-23T12:10:03.779Z,100
2019-01-23T12:11:01.391Z,96
2019-01-23T12:12:01.437Z,88
2019-01-23T12:13:01.413Z,88
2019-01-23T12:14:02.193Z,84
2019-01-23T12:15:01.429Z,84
2019-01-23T12:16:01.745Z,84
2019-01-23T12:17:01.605Z,88
2019-01-23T12:18:01.407Z,92
2019-01-23T12:19:01.759Z,92
2019-01-23T12:20:01.490Z,92
2019-01-23T12:21:02.025Z,92
2019-01-23T12:22:02.526Z,92
2019-01-23T12:23:01.279Z,96
2019-01-23T12:24:06.795Z,96
2019-01-23T12:25:01.831Z,96
2019-01-23T12:26:01.917Z,92
2019-01-23T12:27:01.430Z,92
2019-01-23T12:28:02.695Z,88
2019-01-23T12:29:01.558Z,84
2019-01-23T12:30:01.394Z,84
2019-01-23T12:31:01.587Z,84
2019-01-23T12:32:02.422Z,88
2019-01-23T12:33:01.394Z,88
2019-01-23T12:34:01.747Z,88
2019-01-23T12:35:01.604Z,88
2019-01-23T12:42:29.410Z,88
2019-01-23T12:42:41.681Z,88
2019-01-23T12:43:41.909Z,92
2019-01-23T12:44:41.612Z,96
2019-01-23T12:45:41.596Z,92
2019-01-23T12:46:41.625Z,88
2019-01-23T12:47:42.010Z,84
2019-01-23T12:48:41.585Z,88
2019-01-23T12:49:41.610Z,84
2019-01-23T12:50:41.574Z,84
2019-01-23T12:51:41.621Z,84
2019-01-23T12:52:41.637Z,88
2019-01-23T12:53:42.076Z,88
2019-01-23T12:54:41.508Z,92
2019-01-23T12:55:41.698Z,88
2019-01-23T12:56:43.002Z,84
2019-01-23T12:57:41.689Z,84
2019-01-23T12:58:41.542Z,80
2019-01-23T12:59:41.879Z,80
2019-01-23T13:00:41.615Z,76
2019-01-23T13:01:47.795Z,76
2019-01-23T13:02:41.602Z,80
2019-01-23T13:03:41.670Z,80
2019-01-23T13:04:41.618Z,80
2019-01-23T13:05:41.997Z,76
2019-01-23T13:06:41.553Z,76
2019-01-23T13:07:41.995Z,76
2019-01-23T13:08:41.940Z,76
2019-01-23T13:09:41.602Z,76
2019-01-23T13:10:41.551Z,76
2019-01-23T13:11:41.999Z,72
2019-01-23T13:12:41.586Z,76
2019-01-23T13:13:41.634Z,80
2019-01-23T13:14:41.578Z,80
2019-01-23T13:15:41.713Z,80
2019-01-23T13:16:41.889Z,80
2019-01-23T13:17:43.378Z,80
2019-01-23T13:18:41.945Z,80
2019-01-23T13:19:41.966Z,80
2019-01-23T13:20:42.348Z,80
2019-01-23T13:21:43.014Z,84
2019-01-23T13:22:42.719Z,80
2019-01-23T13:23:43.411Z,84
2019-01-23T13:24:41.570Z,80
2019-01-23T13:25:41.745Z,84
2019-01-23T13:26:41.730Z,84
2019-01-23T13:27:41.669Z,84
2019-01-23T13:28:41.661Z,84
2019-01-23T13:29:42.974Z,76
2019-01-23T13:30:42.556Z,76
2019-01-23T13:31:41.764Z,80
2019-01-23T13:32:41.842Z,72
2019-01-23T13:33:43.197Z,76
2019-01-23T13:34:41.629Z,72
2019-01-23T13:35:45.295Z,68
2019-01-23T13:36:41.677Z,72
2019-01-23T13:37:41.721Z,72
2019-01-23T13:38:41.797Z,68
2019-01-23T13:39:41.806Z,68
2019-01-23T13:40:42.025Z,68
2019-01-23T13:41:44.445Z,72
2019-01-23T13:42:41.844Z,68
2019-01-23T13:43:41.797Z,64
2019-01-23T13:44:41.630Z,64
2019-01-23T13:45:41.903Z,64
2019-01-23T13:46:41.576Z,64
2019-01-23T13:47:45.616Z,60
2019-01-23T13:48:41.693Z,60
2019-01-23T13:49:41.945Z,60
2019-01-23T13:50:41.911Z,60
2019-01-23T13:51:42.155Z,60
2019-01-23T13:52:41.667Z,60
2019-01-23T13:53:42.069Z,56
2019-01-23T13:54:41.715Z,56
2019-01-23T13:55:41.739Z,60
2019-01-23T13:56:41.750Z,56
2019-01-23T13:57:41.786Z,56
2019-01-23T13:58:47.632Z,64
2019-01-23T13:59:42.310Z,64
2019-01-23T14:00:43.189Z,72
2019-01-23T14:01:41.719Z,76
2019-01-23T14:02:41.727Z,80
2019-01-23T14:03:41.688Z,84
2019-01-23T14:04:41.724Z,88
2019-01-23T14:05:43.137Z,84
2019-01-23T14:06:41.709Z,84
2019-01-23T14:07:41.713Z,80
2019-01-23T14:08:43.160Z,80
2019-01-23T14:09:41.842Z,84
2019-01-23T14:10:41.837Z,80
2019-01-23T14:11:42.121Z,80
2019-01-23T14:12:41.768Z,76
2019-01-23T14:13:45.531Z,76
2019-01-23T14:14:41.936Z,72
2019-01-23T14:15:42.227Z,72
2019-01-23T14:16:42.060Z,72
2019-01-23T14:17:42.149Z,72
2019-01-23T14:18:42.922Z,72
2019-01-23T14:19:41.893Z,68
2019-01-23T14:20:41.715Z,64
2019-01-23T14:21:41.664Z,64
2019-01-23T14:22:41.818Z,64
2019-01-23T14:23:42.086Z,64
2019-01-23T14:24:41.713Z,60
2019-01-23T14:25:52.042Z,60
2019-01-23T14:26:42.109Z,56
2019-01-23T14:27:41.913Z,60
2019-01-23T14:28:42.781Z,56
2019-01-23T14:29:43.193Z,52
2019-01-23T14:30:42.419Z,52
2019-01-23T14:31:51.320Z,52
2019-01-23T14:32:42.902Z,52
2019-01-23T14:33:42.386Z,48
2019-01-23T14:34:42.162Z,48
2019-01-23T14:35:42.062Z,48
2019-01-23T14:36:41.848Z,48
2019-01-23T14:37:43.195Z,48
2019-01-23T14:38:41.888Z,44
2019-01-23T14:39:41.790Z,44
2019-01-23T14:40:41.801Z,40
2019-01-23T14:41:42.245Z,40
2019-01-23T14:42:41.809Z,40
2019-01-23T14:43:41.910Z,40
2019-01-23T14:44:41.729Z,40
2019-01-23T14:45:41.830Z,40
2019-01-23T14:46:41.725Z,40
2019-01-23T14:47:42.047Z,36
2019-01-23T14:48:41.754Z,36
2019-01-23T14:49:41.866Z,36
2019-01-23T14:50:41.657Z,36
2019-01-23T14:51:41.766Z,36
2019-01-23T14:52:41.724Z,36
2019-01-23T14:53:41.979Z,32
2019-01-23T14:54:41.736Z,28
2019-01-23T14:55:41.793Z,28
2019-01-23T14:56:41.764Z,28